sensor_id;sensor_type;location;lat;lon;timestamp;pressure;altitude;pressure_sealevel;temperature;humidity
4617;BME280;2321;42.704;23.384;2023-04-28T00:01:41;95673.00;;;7.63;nan
4617;BME280;2321;42.704;23.384;2023-04-28T00:04:09;95679.28;;;7.62;nan
4617;BME280;2321;42.704;23.384;2023-04-28T00:06:36;95679.47;;;7.60;nan
4617;BME280;2321;42.704;23.384;2023-04-28T00:09:03;95681.44;;;7.58;nan
4617;BME280;2321;42.704;23.384;2023-04-28T00:11:29;95689.91;;;7.54;nan
4617;BME280;2321;42.704;23.384;2023-04-28T00:13:58;95685.91;;;7.49;nan
4617;BME280;2321;42.704;23.384;2023-04-28T00:16:24;95677.97;;;7.41;nan
4617;BME280;2321;42.704;23.384;2023-04-28T00:18:51;95685.75;;;7.34;nan
4617;BME280;2321;42.704;23.384;2023-04-28T00:21:18;95689.56;;;7.32;nan
4617;BME280;2321;42.704;23.384;2023-04-28T00:23:45;95681.75;;;7.30;nan
4617;BME280;2321;42.704;23.384;2023-04-28T00:26:12;95686.56;;;7.26;nan
4617;BME280;2321;42.704;23.384;2023-04-28T00:28:39;95682.75;;;7.21;nan
4617;BME280;2321;42.704;23.384;2023-04-28T00:31:10;95684.06;;;7.16;nan
4617;BME280;2321;42.704;23.384;2023-04-28T00:33:38;95687.03;;;7.13;nan
4617;BME280;2321;42.704;23.384;2023-04-28T00:36:06;95691.50;;;7.13;nan
4617;BME280;2321;42.704;23.384;2023-04-28T00:38:33;95678.41;;;7.03;nan
4617;BME280;2321;42.704;23.384;2023-04-28T00:41:00;95697.63;;;7.13;nan
4617;BME280;2321;42.704;23.384;2023-04-28T00:43:27;95695.97;;;7.04;nan
4617;BME280;2321;42.704;23.384;2023-04-28T00:45:53;95703.56;;;6.99;nan
4617;BME280;2321;42.704;23.384;2023-04-28T00:48:22;95698.28;;;6.99;nan
4617;BME280;2321;42.704;23.384;2023-04-28T00:50:49;95698.59;;;6.95;nan
4617;BME280;2321;42.704;23.384;2023-04-28T00:53:17;95692.47;;;6.86;nan
4617;BME280;2321;42.704;23.384;2023-04-28T00:55:44;95700.41;;;6.86;nan
4617;BME280;2321;42.704;23.384;2023-04-28T00:58:12;95699.88;;;6.83;nan
4617;BME280;2321;42.704;23.384;2023-04-28T01:00:39;95702.19;;;6.78;nan
4617;BME280;2321;42.704;23.384;2023-04-28T01:03:06;95699.88;;;6.74;nan
4617;BME280;2321;42.704;23.384;2023-04-28T01:05:35;95703.97;;;6.69;nan
4617;BME280;2321;42.704;23.384;2023-04-28T01:08:02;95703.78;;;6.62;nan
4617;BME280;2321;42.704;23.384;2023-04-28T01:10:30;95699.78;;;6.58;nan
4617;BME280;2321;42.704;23.384;2023-04-28T01:12:57;95703.41;;;6.57;nan
4617;BME280;2321;42.704;23.384;2023-04-28T01:15:24;95707.06;;;6.56;nan
4617;BME280;2321;42.704;23.384;2023-04-28T01:17:51;95709.72;;;6.56;nan
4617;BME280;2321;42.704;23.384;2023-04-28T01:20:18;95708.88;;;6.55;nan
4617;BME280;2321;42.704;23.384;2023-04-28T01:22:46;95708.03;;;6.46;nan
4617;BME280;2321;42.704;23.384;2023-04-28T01:25:15;95711.81;;;6.43;nan
4617;BME280;2321;42.704;23.384;2023-04-28T01:27:41;95709.66;;;6.47;nan
4617;BME280;2321;42.704;23.384;2023-04-28T01:30:09;95705.56;;;6.53;nan
4617;BME280;2321;42.704;23.384;2023-04-28T01:32:36;95709.34;;;6.50;nan
4617;BME280;2321;42.704;23.384;2023-04-28T01:35:03;95708.84;;;6.47;nan
4617;BME280;2321;42.704;23.384;2023-04-28T01:37:30;95712.00;;;6.50;nan
4617;BME280;2321;42.704;23.384;2023-04-28T01:39:56;95709.19;;;6.52;nan
4617;BME280;2321;42.704;23.384;2023-04-28T01:42:25;95708.66;;;6.40;nan
4617;BME280;2321;42.704;23.384;2023-04-28T01:44:51;95710.78;;;6.36;nan
4617;BME280;2321;42.704;23.384;2023-04-28T01:47:18;95707.16;;;6.37;nan
4617;BME280;2321;42.704;23.384;2023-04-28T01:49:45;95714.56;;;6.34;nan
4617;BME280;2321;42.704;23.384;2023-04-28T01:52:14;95715.34;;;6.26;nan
4617;BME280;2321;42.704;23.384;2023-04-28T01:54:41;95710.84;;;6.18;nan
4617;BME280;2321;42.704;23.384;2023-04-28T01:57:08;95704.06;;;6.15;nan
4617;BME280;2321;42.704;23.384;2023-04-28T01:59:36;95706.50;;;6.08;nan
4617;BME280;2321;42.704;23.384;2023-04-28T02:02:03;95711.78;;;6.08;nan
4617;BME280;2321;42.704;23.384;2023-04-28T02:04:29;95715.03;;;6.02;nan
4617;BME280;2321;42.704;23.384;2023-04-28T02:06:56;95710.25;;;6.06;nan
4617;BME280;2321;42.704;23.384;2023-04-28T02:09:24;95711.22;;;6.05;nan
4617;BME280;2321;42.704;23.384;2023-04-28T02:11:51;95712.38;;;6.02;nan
4617;BME280;2321;42.704;23.384;2023-04-28T02:14:17;95716.50;;;6.05;nan
4617;BME280;2321;42.704;23.384;2023-04-28T02:16:48;95710.69;;;6.01;nan
4617;BME280;2321;42.704;23.384;2023-04-28T02:19:15;95720.81;;;6.06;nan
4617;BME280;2321;42.704;23.384;2023-04-28T02:21:42;95720.00;;;6.05;nan
4617;BME280;2321;42.704;23.384;2023-04-28T02:24:09;95724.63;;;6.03;nan
4617;BME280;2321;42.704;23.384;2023-04-28T02:26:36;95731.84;;;6.01;nan
4617;BME280;2321;42.704;23.384;2023-04-28T02:29:02;95728.53;;;5.99;nan
4617;BME280;2321;42.704;23.384;2023-04-28T02:31:29;95730.22;;;6.00;nan
4617;BME280;2321;42.704;23.384;2023-04-28T02:33:57;95722.94;;;6.02;nan
4617;BME280;2321;42.704;23.384;2023-04-28T02:36:24;95729.22;;;6.01;nan
4617;BME280;2321;42.704;23.384;2023-04-28T02:38:54;95723.56;;;5.96;nan
4617;BME280;2321;42.704;23.384;2023-04-28T02:41:21;95730.88;;;6.02;nan
4617;BME280;2321;42.704;23.384;2023-04-28T02:43:48;95740.63;;;6.02;nan
4617;BME280;2321;42.704;23.384;2023-04-28T02:46:15;95737.47;;;5.98;nan
4617;BME280;2321;42.704;23.384;2023-04-28T02:48:42;95738.50;;;6.05;nan
4617;BME280;2321;42.704;23.384;2023-04-28T02:51:10;95737.38;;;6.08;nan
4617;BME280;2321;42.704;23.384;2023-04-28T02:53:38;95746.75;;;6.02;nan
4617;BME280;2321;42.704;23.384;2023-04-28T02:56:05;95747.03;;;5.99;nan
4617;BME280;2321;42.704;23.384;2023-04-28T02:58:32;95754.84;;;6.01;nan
4617;BME280;2321;42.704;23.384;2023-04-28T03:00:59;95748.72;;;6.00;nan
4617;BME280;2321;42.704;23.384;2023-04-28T03:03:26;95753.25;;;5.89;nan
4617;BME280;2321;42.704;23.384;2023-04-28T03:05:53;95734.84;;;5.80;nan
4617;BME280;2321;42.704;23.384;2023-04-28T03:08:22;95753.78;;;5.93;nan
4617;BME280;2321;42.704;23.384;2023-04-28T03:10:49;95757.56;;;5.91;nan
4617;BME280;2321;42.704;23.384;2023-04-28T03:13:16;95755.06;;;5.89;nan
4617;BME280;2321;42.704;23.384;2023-04-28T03:15:43;95756.59;;;5.92;nan
4617;BME280;2321;42.704;23.384;2023-04-28T03:18:09;95762.03;;;5.90;nan
4617;BME280;2321;42.704;23.384;2023-04-28T03:20:36;95762.69;;;5.92;nan
4617;BME280;2321;42.704;23.384;2023-04-28T03:23:03;95763.38;;;5.94;nan
4617;BME280;2321;42.704;23.384;2023-04-28T03:25:31;95771.63;;;5.91;nan
4617;BME280;2321;42.704;23.384;2023-04-28T03:27:58;95777.75;;;5.92;nan
4617;BME280;2321;42.704;23.384;2023-04-28T03:30:25;95772.06;;;5.86;nan
4617;BME280;2321;42.704;23.384;2023-04-28T03:32:52;95788.09;;;5.85;nan
4617;BME280;2321;42.704;23.384;2023-04-28T03:35:19;95782.41;;;5.80;nan
4617;BME280;2321;42.704;23.384;2023-04-28T03:37:46;95788.53;;;5.80;nan
4617;BME280;2321;42.704;23.384;2023-04-28T03:40:12;95796.25;;;5.73;nan
4617;BME280;2321;42.704;23.384;2023-04-28T03:42:41;95796.03;;;5.66;nan
4617;BME280;2321;42.704;23.384;2023-04-28T03:45:08;95801.75;;;5.62;nan
4617;BME280;2321;42.704;23.384;2023-04-28T03:47:35;95805.81;;;5.56;nan
4617;BME280;2321;42.704;23.384;2023-04-28T03:50:02;95803.78;;;5.50;nan
4617;BME280;2321;42.704;23.384;2023-04-28T03:52:30;95807.78;;;5.54;nan
4617;BME280;2321;42.704;23.384;2023-04-28T03:54:56;95812.41;;;5.52;nan
4617;BME280;2321;42.704;23.384;2023-04-28T03:57:23;95818.50;;;5.52;nan
4617;BME280;2321;42.704;23.384;2023-04-28T03:59:51;95816.59;;;5.44;nan
4617;BME280;2321;42.704;23.384;2023-04-28T04:02:18;95827.47;;;5.41;nan
4617;BME280;2321;42.704;23.384;2023-04-28T04:04:45;95827.31;;;5.43;nan
4617;BME280;2321;42.704;23.384;2023-04-28T04:07:12;95828.69;;;5.47;nan
4617;BME280;2321;42.704;23.384;2023-04-28T04:09:39;95826.13;;;5.55;nan
4617;BME280;2321;42.704;23.384;2023-04-28T04:12:06;95840.69;;;5.60;nan
4617;BME280;2321;42.704;23.384;2023-04-28T04:14:33;95841.53;;;5.60;nan
4617;BME280;2321;42.704;23.384;2023-04-28T04:17:01;95837.88;;;5.61;nan
4617;BME280;2321;42.704;23.384;2023-04-28T04:19:28;95842.19;;;5.62;nan
4617;BME280;2321;42.704;23.384;2023-04-28T04:21:55;95843.56;;;5.66;nan
4617;BME280;2321;42.704;23.384;2023-04-28T04:24:22;95841.16;;;5.73;nan
4617;BME280;2321;42.704;23.384;2023-04-28T04:26:49;95847.34;;;5.82;nan
4617;BME280;2321;42.704;23.384;2023-04-28T04:29:15;95847.19;;;5.84;nan
4617;BME280;2321;42.704;23.384;2023-04-28T04:31:42;95858.00;;;5.91;nan
4617;BME280;2321;42.704;23.384;2023-04-28T04:34:11;95852.78;;;5.99;nan
4617;BME280;2321;42.704;23.384;2023-04-28T04:36:38;95847.19;;;6.02;nan
4617;BME280;2321;42.704;23.384;2023-04-28T04:39:05;95852.16;;;6.05;nan
4617;BME280;2321;42.704;23.384;2023-04-28T04:41:32;95850.75;;;6.11;nan
4617;BME280;2321;42.704;23.384;2023-04-28T04:43:59;95852.78;;;6.17;nan
4617;BME280;2321;42.704;23.384;2023-04-28T04:46:26;95858.63;;;6.21;nan
4617;BME280;2321;42.704;23.384;2023-04-28T04:48:52;95858.63;;;6.21;nan
4617;BME280;2321;42.704;23.384;2023-04-28T04:51:21;95873.69;;;6.29;nan
4617;BME280;2321;42.704;23.384;2023-04-28T04:53:47;95870.91;;;6.30;nan
4617;BME280;2321;42.704;23.384;2023-04-28T04:56:14;95874.22;;;6.32;nan
4617;BME280;2321;42.704;23.384;2023-04-28T04:58:42;95865.31;;;6.34;nan
4617;BME280;2321;42.704;23.384;2023-04-28T05:01:09;95870.66;;;6.42;nan
4617;BME280;2321;42.704;23.384;2023-04-28T05:03:36;95879.13;;;6.46;nan
4617;BME280;2321;42.704;23.384;2023-04-28T05:06:03;95878.50;;;6.52;nan
4617;BME280;2321;42.704;23.384;2023-04-28T05:08:31;95889.31;;;6.59;nan
4617;BME280;2321;42.704;23.384;2023-04-28T05:10:58;95885.03;;;6.66;nan
4617;BME280;2321;42.704;23.384;2023-04-28T05:13:25;95888.88;;;6.72;nan
4617;BME280;2321;42.704;23.384;2023-04-28T05:15:52;95884.31;;;6.82;nan
4617;BME280;2321;42.704;23.384;2023-04-28T05:18:18;95886.69;;;6.94;nan
4617;BME280;2321;42.704;23.384;2023-04-28T05:20:45;95874.34;;;7.03;nan
4617;BME280;2321;42.704;23.384;2023-04-28T05:23:12;95881.53;;;7.19;nan
4617;BME280;2321;42.704;23.384;2023-04-28T05:25:41;95880.72;;;7.27;nan
4617;BME280;2321;42.704;23.384;2023-04-28T05:28:08;95883.22;;;7.28;nan
4617;BME280;2321;42.704;23.384;2023-04-28T05:30:35;95882.56;;;7.26;nan
4617;BME280;2321;42.704;23.384;2023-04-28T05:33:02;95875.47;;;7.35;nan
4617;BME280;2321;42.704;23.384;2023-04-28T05:35:29;95879.13;;;7.43;nan
4617;BME280;2321;42.704;23.384;2023-04-28T05:37:56;95872.22;;;7.50;nan
4617;BME280;2321;42.704;23.384;2023-04-28T05:40:23;95878.72;;;7.64;nan
4617;BME280;2321;42.704;23.384;2023-04-28T05:42:52;95878.91;;;7.79;nan
4617;BME280;2321;42.704;23.384;2023-04-28T05:45:19;95875.97;;;7.91;nan
4617;BME280;2321;42.704;23.384;2023-04-28T05:47:45;95879.97;;;8.12;nan
4617;BME280;2321;42.704;23.384;2023-04-28T05:50:12;95888.25;;;8.17;nan
4617;BME280;2321;42.704;23.384;2023-04-28T05:52:39;95877.81;;;8.15;nan
4617;BME280;2321;42.704;23.384;2023-04-28T05:55:07;95880.94;;;8.11;nan
4617;BME280;2321;42.704;23.384;2023-04-28T05:57:34;95874.31;;;8.06;nan
4617;BME280;2321;42.704;23.384;2023-04-28T06:00:02;95882.78;;;8.19;nan
4617;BME280;2321;42.704;23.384;2023-04-28T06:02:29;95882.94;;;8.25;nan
4617;BME280;2321;42.704;23.384;2023-04-28T06:04:56;95889.94;;;8.43;nan
4617;BME280;2321;42.704;23.384;2023-04-28T06:07:23;95892.22;;;8.46;nan
4617;BME280;2321;42.704;23.384;2023-04-28T06:09:50;95884.94;;;8.57;nan
4617;BME280;2321;42.704;23.384;2023-04-28T06:12:17;95876.66;;;8.60;nan
4617;BME280;2321;42.704;23.384;2023-04-28T06:14:43;95885.28;;;8.79;nan
4617;BME280;2321;42.704;23.384;2023-04-28T06:17:12;95889.25;;;8.75;nan
4617;BME280;2321;42.704;23.384;2023-04-28T06:19:39;95888.25;;;8.76;nan
4617;BME280;2321;42.704;23.384;2023-04-28T06:22:05;95877.47;;;8.86;nan
4617;BME280;2321;42.704;23.384;2023-04-28T06:24:32;95892.53;;;8.93;nan
4617;BME280;2321;42.704;23.384;2023-04-28T06:26:59;95892.34;;;9.03;nan
4617;BME280;2321;42.704;23.384;2023-04-28T06:29:27;95883.56;;;9.03;nan
4617;BME280;2321;42.704;23.384;2023-04-28T06:31:53;95885.69;;;9.16;nan
4617;BME280;2321;42.704;23.384;2023-04-28T06:34:24;95888.00;;;9.19;nan
4617;BME280;2321;42.704;23.384;2023-04-28T06:36:53;95891.00;;;9.16;nan
4617;BME280;2321;42.704;23.384;2023-04-28T06:39:20;95886.47;;;9.25;nan
4617;BME280;2321;42.704;23.384;2023-04-28T06:41:47;95884.13;;;9.30;nan
4617;BME280;2321;42.704;23.384;2023-04-28T06:44:14;95882.59;;;9.36;nan
4617;BME280;2321;42.704;23.384;2023-04-28T06:46:41;95875.25;;;9.46;nan
4617;BME280;2321;42.704;23.384;2023-04-28T06:49:07;95881.38;;;9.55;nan
4617;BME280;2321;42.704;23.384;2023-04-28T06:51:36;95882.69;;;9.59;nan
4617;BME280;2321;42.704;23.384;2023-04-28T06:54:02;95882.69;;;9.59;nan
4617;BME280;2321;42.704;23.384;2023-04-28T06:56:30;95882.00;;;9.66;nan
4617;BME280;2321;42.704;23.384;2023-04-28T06:58:57;95848.94;;;9.60;nan
4617;BME280;2321;42.704;23.384;2023-04-28T07:01:24;95876.09;;;9.79;nan
4617;BME280;2321;42.704;23.384;2023-04-28T07:03:51;95877.75;;;9.80;nan
4617;BME280;2321;42.704;23.384;2023-04-28T07:06:18;95879.16;;;9.91;nan
4617;BME280;2321;42.704;23.384;2023-04-28T07:08:46;95886.44;;;9.97;nan
4617;BME280;2321;42.704;23.384;2023-04-28T07:11:13;95886.09;;;10.00;nan
4617;BME280;2321;42.704;23.384;2023-04-28T07:13:40;95880.47;;;9.95;nan
4617;BME280;2321;42.704;23.384;2023-04-28T07:16:07;95869.44;;;10.07;nan
4617;BME280;2321;42.704;23.384;2023-04-28T07:18:34;95874.88;;;10.13;nan
4617;BME280;2321;42.704;23.384;2023-04-28T07:21:01;95877.44;;;10.30;nan
4617;BME280;2321;42.704;23.384;2023-04-28T07:23:28;95870.56;;;10.36;nan
4617;BME280;2321;42.704;23.384;2023-04-28T07:25:56;95871.31;;;10.45;nan
4617;BME280;2321;42.704;23.384;2023-04-28T07:28:23;95870.53;;;10.60;nan
4617;BME280;2321;42.704;23.384;2023-04-28T07:30:50;95866.22;;;10.59;nan
4617;BME280;2321;42.704;23.384;2023-04-28T07:33:17;95862.34;;;10.61;nan
4617;BME280;2321;42.704;23.384;2023-04-28T07:35:44;95861.75;;;10.74;nan
4617;BME280;2321;42.704;23.384;2023-04-28T07:38:11;95864.25;;;10.91;nan
4617;BME280;2321;42.704;23.384;2023-04-28T07:40:38;95860.78;;;11.06;nan
4617;BME280;2321;42.704;23.384;2023-04-28T07:43:06;95864.78;;;11.17;nan
4617;BME280;2321;42.704;23.384;2023-04-28T07:45:37;95870.59;;;11.20;nan
4617;BME280;2321;42.704;23.384;2023-04-28T07:48:05;95868.94;;;11.35;nan
4617;BME280;2321;42.704;23.384;2023-04-28T07:50:32;95867.00;;;11.43;nan
4617;BME280;2321;42.704;23.384;2023-04-28T07:52:59;95866.81;;;11.45;nan
4617;BME280;2321;42.704;23.384;2023-04-28T07:55:26;95865.31;;;11.58;nan
4617;BME280;2321;42.704;23.384;2023-04-28T07:57:53;95865.19;;;11.66;nan
4617;BME280;2321;42.704;23.384;2023-04-28T08:00:21;95864.81;;;11.69;nan
4617;BME280;2321;42.704;23.384;2023-04-28T08:02:48;95882.00;;;11.82;nan
4617;BME280;2321;42.704;23.384;2023-04-28T08:05:15;95864.53;;;11.79;nan
4617;BME280;2321;42.704;23.384;2023-04-28T08:07:42;95873.28;;;11.73;nan
4617;BME280;2321;42.704;23.384;2023-04-28T08:10:10;95862.63;;;11.73;nan
4617;BME280;2321;42.704;23.384;2023-04-28T08:12:37;95862.44;;;11.74;nan
4617;BME280;2321;42.704;23.384;2023-04-28T08:15:05;95852.03;;;11.80;nan
4617;BME280;2321;42.704;23.384;2023-04-28T08:17:34;95859.06;;;11.87;nan
4617;BME280;2321;42.704;23.384;2023-04-28T08:20:01;95865.78;;;11.98;nan
4617;BME280;2321;42.704;23.384;2023-04-28T08:22:28;95867.09;;;12.09;nan
4617;BME280;2321;42.704;23.384;2023-04-28T08:24:54;95871.78;;;12.23;nan
4617;BME280;2321;42.704;23.384;2023-04-28T08:27:21;95856.06;;;12.35;nan
4617;BME280;2321;42.704;23.384;2023-04-28T08:29:50;95861.91;;;12.45;nan
4617;BME280;2321;42.704;23.384;2023-04-28T08:32:17;95854.09;;;12.44;nan
4617;BME280;2321;42.704;23.384;2023-04-28T08:34:45;95853.31;;;12.50;nan
4617;BME280;2321;42.704;23.384;2023-04-28T08:37:12;95860.19;;;12.59;nan
4617;BME280;2321;42.704;23.384;2023-04-28T08:39:42;95861.03;;;12.67;nan
4617;BME280;2321;42.704;23.384;2023-04-28T08:42:09;95853.28;;;12.72;nan
4617;BME280;2321;42.704;23.384;2023-04-28T08:44:37;95855.81;;;12.80;nan
4617;BME280;2321;42.704;23.384;2023-04-28T08:47:11;95844.16;;;12.95;nan
4617;BME280;2321;42.704;23.384;2023-04-28T08:49:39;95846.44;;;12.98;nan
4617;BME280;2321;42.704;23.384;2023-04-28T08:52:12;95837.47;;;13.06;nan
4617;BME280;2321;42.704;23.384;2023-04-28T08:54:43;95843.03;;;13.11;nan
4617;BME280;2321;42.704;23.384;2023-04-28T08:57:10;95834.88;;;13.26;nan
4617;BME280;2321;42.704;23.384;2023-04-28T08:59:38;95832.25;;;13.33;nan
4617;BME280;2321;42.704;23.384;2023-04-28T09:02:08;95802.97;;;13.18;nan
4617;BME280;2321;42.704;23.384;2023-04-28T09:04:35;95834.31;;;13.38;nan
4617;BME280;2321;42.704;23.384;2023-04-28T09:07:02;95841.16;;;13.47;nan
4617;BME280;2321;42.704;23.384;2023-04-28T09:09:30;95834.81;;;13.55;nan
4617;BME280;2321;42.704;23.384;2023-04-28T09:11:58;95829.63;;;13.47;nan
4617;BME280;2321;42.704;23.384;2023-04-28T09:14:26;95830.31;;;13.63;nan
4617;BME280;2321;42.704;23.384;2023-04-28T09:16:54;95825.19;;;13.68;nan
4617;BME280;2321;42.704;23.384;2023-04-28T09:19:23;95813.88;;;13.72;nan
4617;BME280;2321;42.704;23.384;2023-04-28T09:21:52;95805.06;;;13.86;nan
4617;BME280;2321;42.704;23.384;2023-04-28T09:24:28;95811.06;;;14.08;nan
4617;BME280;2321;42.704;23.384;2023-04-28T09:26:57;95818.69;;;14.18;nan
4617;BME280;2321;42.704;23.384;2023-04-28T09:29:24;95807.78;;;14.26;nan
4617;BME280;2321;42.704;23.384;2023-04-28T09:31:51;95804.69;;;14.30;nan
4617;BME280;2321;42.704;23.384;2023-04-28T09:34:18;95810.69;;;14.25;nan
4617;BME280;2321;42.704;23.384;2023-04-28T09:36:46;95804.91;;;14.14;nan
4617;BME280;2321;42.704;23.384;2023-04-28T09:39:13;95800.38;;;14.15;nan
4617;BME280;2321;42.704;23.384;2023-04-28T09:41:41;95803.66;;;14.17;nan
4617;BME280;2321;42.704;23.384;2023-04-28T09:44:17;95792.75;;;14.19;nan
4617;BME280;2321;42.704;23.384;2023-04-28T09:46:46;95791.53;;;14.28;nan
4617;BME280;2321;42.704;23.384;2023-04-28T09:49:13;95790.69;;;14.34;nan
4617;BME280;2321;42.704;23.384;2023-04-28T09:51:41;95796.47;;;14.38;nan
4617;BME280;2321;42.704;23.384;2023-04-28T09:54:08;95785.75;;;14.24;nan
4617;BME280;2321;42.704;23.384;2023-04-28T09:56:35;95784.31;;;14.22;nan
4617;BME280;2321;42.704;23.384;2023-04-28T09:59:06;95778.53;;;14.18;nan
4617;BME280;2321;42.704;23.384;2023-04-28T10:01:36;95775.25;;;14.16;nan
4617;BME280;2321;42.704;23.384;2023-04-28T10:04:04;95770.72;;;14.10;nan
4617;BME280;2321;42.704;23.384;2023-04-28T10:06:33;95772.56;;;14.09;nan
4617;BME280;2321;42.704;23.384;2023-04-28T10:09:00;95762.28;;;14.20;nan
4617;BME280;2321;42.704;23.384;2023-04-28T10:11:28;95761.25;;;14.41;nan
4617;BME280;2321;42.704;23.384;2023-04-28T10:13:55;95760.19;;;14.63;nan
4617;BME280;2321;42.704;23.384;2023-04-28T10:16:22;95759.13;;;14.64;nan
4617;BME280;2321;42.704;23.384;2023-04-28T10:18:52;95758.28;;;14.70;nan
4617;BME280;2321;42.704;23.384;2023-04-28T10:21:21;95754.16;;;14.81;nan
4617;BME280;2321;42.704;23.384;2023-04-28T10:23:59;95757.00;;;15.00;nan
4617;BME280;2321;42.704;23.384;2023-04-28T10:27:05;95759.88;;;15.05;nan
4617;BME280;2321;42.704;23.384;2023-04-28T10:29:33;95750.59;;;15.01;nan
4617;BME280;2321;42.704;23.384;2023-04-28T10:32:17;95745.22;;;15.08;nan
4617;BME280;2321;42.704;23.384;2023-04-28T10:34:46;95754.28;;;15.13;nan
4617;BME280;2321;42.704;23.384;2023-04-28T10:37:13;95747.25;;;15.19;nan
4617;BME280;2321;42.704;23.384;2023-04-28T10:42:52;95738.72;;;15.36;nan
4617;BME280;2321;42.704;23.384;2023-04-28T10:48:20;95728.97;;;15.42;nan
4617;BME280;2321;42.704;23.384;2023-04-28T10:51:28;95724.00;;;15.45;nan
4617;BME280;2321;42.704;23.384;2023-04-28T10:54:09;95731.97;;;15.59;nan
4617;BME280;2321;42.704;23.384;2023-04-28T10:56:36;95721.19;;;15.66;nan
4617;BME280;2321;42.704;23.384;2023-04-28T10:59:28;95725.13;;;15.63;nan
4617;BME280;2321;42.704;23.384;2023-04-28T11:01:55;95721.47;;;15.57;nan
4617;BME280;2321;42.704;23.384;2023-04-28T11:11:14;95711.19;;;15.80;nan
4617;BME280;2321;42.704;23.384;2023-04-28T11:13:41;95702.38;;;15.98;nan
4617;BME280;2321;42.704;23.384;2023-04-28T11:16:13;95697.91;;;16.18;nan
4617;BME280;2321;42.704;23.384;2023-04-28T11:18:55;95690.97;;;16.29;nan
4617;BME280;2321;42.704;23.384;2023-04-28T11:21:24;95693.75;;;16.41;nan
4617;BME280;2321;42.704;23.384;2023-04-28T11:23:52;95694.75;;;16.65;nan
4617;BME280;2321;42.704;23.384;2023-04-28T11:26:21;95685.78;;;16.72;nan
4617;BME280;2321;42.704;23.384;2023-04-28T11:28:50;95691.09;;;16.60;nan
4617;BME280;2321;42.704;23.384;2023-04-28T11:31:18;95685.78;;;16.53;nan
4617;BME280;2321;42.704;23.384;2023-04-28T11:33:53;95678.84;;;16.45;nan
4617;BME280;2321;42.704;23.384;2023-04-28T11:36:26;95674.34;;;16.39;nan
4617;BME280;2321;42.704;23.384;2023-04-28T11:38:54;95660.72;;;16.40;nan
4617;BME280;2321;42.704;23.384;2023-04-28T11:41:23;95663.47;;;16.52;nan
4617;BME280;2321;42.704;23.384;2023-04-28T11:43:51;95668.31;;;16.62;nan
4617;BME280;2321;42.704;23.384;2023-04-28T11:46:19;95662.66;;;16.71;nan
4617;BME280;2321;42.704;23.384;2023-04-28T11:48:46;95656.97;;;16.79;nan
4617;BME280;2321;42.704;23.384;2023-04-28T11:51:29;95653.13;;;16.87;nan
4617;BME280;2321;42.704;23.384;2023-04-28T11:53:58;95657.03;;;16.91;nan
4617;BME280;2321;42.704;23.384;2023-04-28T11:56:26;95655.47;;;16.83;nan
4617;BME280;2321;42.704;23.384;2023-04-28T11:59:04;95648.84;;;16.67;nan
4617;BME280;2321;42.704;23.384;2023-04-28T12:01:33;95644.66;;;16.71;nan
4617;BME280;2321;42.704;23.384;2023-04-28T12:04:02;95638.44;;;16.90;nan
4617;BME280;2321;42.704;23.384;2023-04-28T12:06:29;95639.41;;;16.95;nan
4617;BME280;2321;42.704;23.384;2023-04-28T12:08:55;95643.94;;;16.95;nan
4617;BME280;2321;42.704;23.384;2023-04-28T12:11:30;95633.19;;;16.95;nan
4617;BME280;2321;42.704;23.384;2023-04-28T12:14:06;95635.13;;;16.87;nan
4617;BME280;2321;42.704;23.384;2023-04-28T12:16:43;95629.09;;;16.92;nan
4617;BME280;2321;42.704;23.384;2023-04-28T12:19:11;95627.50;;;17.03;nan
4617;BME280;2321;42.704;23.384;2023-04-28T12:21:40;95605.88;;;17.10;nan
4617;BME280;2321;42.704;23.384;2023-04-28T12:24:18;95616.16;;;17.32;nan
4617;BME280;2321;42.704;23.384;2023-04-28T12:26:47;95614.19;;;17.51;nan
4617;BME280;2321;42.704;23.384;2023-04-28T12:29:34;95618.19;;;17.61;nan
4617;BME280;2321;42.704;23.384;2023-04-28T12:32:02;95609.06;;;17.62;nan
4617;BME280;2321;42.704;23.384;2023-04-28T12:34:29;95603.31;;;17.58;nan
4617;BME280;2321;42.704;23.384;2023-04-28T12:36:58;95601.56;;;17.52;nan
4617;BME280;2321;42.704;23.384;2023-04-28T12:39:24;95596.28;;;17.57;nan
4617;BME280;2321;42.704;23.384;2023-04-28T12:41:53;95603.59;;;17.69;nan
4617;BME280;2321;42.704;23.384;2023-04-28T12:44:23;95610.28;;;17.78;nan
4617;BME280;2321;42.704;23.384;2023-04-28T12:46:52;95601.84;;;17.74;nan
4617;BME280;2321;42.704;23.384;2023-04-28T12:49:21;95598.69;;;17.90;nan
4617;BME280;2321;42.704;23.384;2023-04-28T12:51:48;95596.56;;;17.92;nan
4617;BME280;2321;42.704;23.384;2023-04-28T12:54:15;95599.16;;;17.86;nan
4617;BME280;2321;42.704;23.384;2023-04-28T12:56:42;95594.13;;;17.78;nan
4617;BME280;2321;42.704;23.384;2023-04-28T12:59:11;95595.28;;;17.82;nan
4617;BME280;2321;42.704;23.384;2023-04-28T13:01:37;95588.84;;;17.83;nan
4617;BME280;2321;42.704;23.384;2023-04-28T13:04:04;95581.94;;;17.88;nan
4617;BME280;2321;42.704;23.384;2023-04-28T13:06:32;95575.84;;;17.92;nan
4617;BME280;2321;42.704;23.384;2023-04-28T13:09:00;95575.72;;;17.99;nan
4617;BME280;2321;42.704;23.384;2023-04-28T13:11:27;95576.78;;;17.86;nan
4617;BME280;2321;42.704;23.384;2023-04-28T13:13:57;95570.81;;;17.84;nan
4617;BME280;2321;42.704;23.384;2023-04-28T13:16:26;95571.50;;;17.79;nan
4617;BME280;2321;42.704;23.384;2023-04-28T13:18:55;95560.16;;;17.65;nan
4617;BME280;2321;42.704;23.384;2023-04-28T13:21:23;95578.28;;;17.70;nan
4617;BME280;2321;42.704;23.384;2023-04-28T13:23:51;95568.69;;;17.74;nan
4617;BME280;2321;42.704;23.384;2023-04-28T13:26:20;95570.81;;;17.84;nan
4617;BME280;2321;42.704;23.384;2023-04-28T13:28:49;95577.22;;;17.95;nan
4617;BME280;2321;42.704;23.384;2023-04-28T13:31:16;95565.16;;;17.97;nan
4617;BME280;2321;42.704;23.384;2023-04-28T13:33:45;95556.97;;;18.04;nan
4617;BME280;2321;42.704;23.384;2023-04-28T13:36:12;95561.44;;;18.23;nan
4617;BME280;2321;42.704;23.384;2023-04-28T13:38:39;95560.38;;;18.24;nan
4617;BME280;2321;42.704;23.384;2023-04-28T13:41:06;95555.44;;;18.21;nan
4617;BME280;2321;42.704;23.384;2023-04-28T13:43:33;95551.69;;;18.10;nan
4617;BME280;2321;42.704;23.384;2023-04-28T13:46:00;95550.28;;;18.07;nan
4617;BME280;2321;42.704;23.384;2023-04-28T13:48:31;95550.75;;;18.04;nan
4617;BME280;2321;42.704;23.384;2023-04-28T13:51:00;95551.94;;;17.96;nan
4617;BME280;2321;42.704;23.384;2023-04-28T13:53:28;95547.25;;;18.03;nan
4617;BME280;2321;42.704;23.384;2023-04-28T13:55:55;95556.13;;;18.16;nan
4617;BME280;2321;42.704;23.384;2023-04-28T13:58:23;95538.91;;;18.17;nan